Time;durP1;ratioP1;P1;durP2;ratioP2;P2;SDS_P1;SDS_P2;PMS_P1;PMS_P2;Temp;Humidity;BMP_temperature;BMP_pressure;BME280_temperature;BME280_humidity;BME280_pressure;Samples;Min_cycle;Max_cycle;Signal;HPM_P1;HPM_P2
2023/09/03 00:00:40;;;;;;;22.58;19.80;;;;;;;14.82;100.00;102462.22;5049755;28;20480;-49
2023/09/03 00:03:05;;;;;;;21.08;19.00;;;;;;;14.82;100.00;102467.56;5050985;28;20033;-48
2023/09/03 00:05:31;;;;;;;23.25;19.20;;;;;;;14.76;100.00;102461.66;5039165;28;20044;-49
2023/09/03 00:07:56;;;;;;;21.48;19.10;;;;;;;14.72;100.00;102456.63;5048934;28;20030;-48
2023/09/03 00:10:22;;;;;;;21.17;19.10;;;;;;;14.72;100.00;102459.31;5046425;28;20464;-48
2023/09/03 00:12:47;;;;;;;22.50;20.30;;;;;;;14.69;100.00;102460.38;5044376;28;20025;-48
2023/09/03 00:15:12;;;;;;;22.98;20.60;;;;;;;14.68;100.00;102460.50;5054497;28;20025;-48
2023/09/03 00:17:38;;;;;;;22.25;19.88;;;;;;;14.64;100.00;102453.63;5049954;28;20021;-48
2023/09/03 00:20:04;;;;;;;22.58;20.33;;;;;;;14.61;100.00;102452.88;5049878;28;20080;-48
2023/09/03 00:22:30;;;;;;;22.25;19.88;;;;;;;14.59;100.00;102454.81;5051188;28;20045;-48
2023/09/03 00:24:55;;;;;;;21.98;19.75;;;;;;;14.57;100.00;102453.16;5051206;28;20029;-48
2023/09/03 00:27:20;;;;;;;23.75;19.88;;;;;;;14.55;100.00;102452.41;5049479;28;20029;-48
2023/09/03 00:29:46;;;;;;;22.85;20.38;;;;;;;14.52;100.00;102457.94;5048009;28;20115;-48
2023/09/03 00:32:11;;;;;;;23.35;19.77;;;;;;;14.50;100.00;102465.22;5048258;28;20029;-48
2023/09/03 00:34:36;;;;;;;20.88;18.88;;;;;;;14.47;100.00;102466.31;5052251;28;20100;-47
2023/09/03 00:37:02;;;;;;;20.38;18.38;;;;;;;14.44;100.00;102472.69;5049195;28;20100;-48
2023/09/03 00:39:27;;;;;;;20.98;18.80;;;;;;;14.41;100.00;102470.22;5049264;28;20032;-47
2023/09/03 00:41:52;;;;;;;22.70;18.65;;;;;;;14.41;100.00;102478.25;5047816;28;20526;-47
2023/09/03 00:44:18;;;;;;;21.17;18.98;;;;;;;14.40;100.00;102481.88;5051247;28;20128;-48
2023/09/03 00:46:44;;;;;;;20.02;17.90;;;;;;;14.40;100.00;102479.19;5046639;28;20032;-48
2023/09/03 00:49:11;;;;;;;20.88;18.60;;;;;;;14.35;100.00;102484.00;5046951;28;20402;-47
2023/09/03 00:51:38;;;;;;;23.70;19.10;;;;;;;14.36;100.00;102487.56;5044428;28;20121;-48
2023/09/03 00:54:04;;;;;;;20.60;18.42;;;;;;;14.32;100.00;102483.34;5049809;28;20159;-47
2023/09/03 00:56:30;;;;;;;20.63;18.23;;;;;;;14.34;100.00;102484.09;5052191;28;20669;-49
2023/09/03 00:58:56;;;;;;;21.13;18.92;;;;;;;14.33;100.00;102488.59;5042568;28;20033;-48
2023/09/03 01:01:22;;;;;;;23.85;18.33;;;;;;;14.31;100.00;102481.66;5043275;28;20108;-47
2023/09/03 01:03:48;;;;;;;19.13;17.25;;;;;;;14.31;100.00;102484.31;5055018;28;20374;-47
2023/09/03 01:06:13;;;;;;;20.05;17.35;;;;;;;14.27;100.00;102472.09;5050322;28;20024;-48
2023/09/03 01:08:39;;;;;;;20.33;17.83;;;;;;;14.29;100.00;102497.78;5046353;28;20426;-50
2023/09/03 01:11:07;;;;;;;19.77;17.67;;;;;;;14.25;100.00;102501.59;5040594;28;20072;-48
2023/09/03 01:13:44;;;;;;;20.52;18.42;;;;;;;14.27;100.00;102504.19;5052124;28;20044;-48
2023/09/03 01:16:22;;;;;;;21.30;17.88;;;;;;;14.25;100.00;102498.94;5042644;28;20032;-48
2023/09/03 01:18:48;;;;;;;21.53;18.00;;;;;;;14.22;100.00;102494.66;5051981;28;20048;-48
2023/09/03 01:21:53;;;;;;;18.40;16.50;;;;;;;14.23;100.00;102487.50;5040437;28;20025;-49
2023/09/03 01:24:47;;;;;;;21.58;16.85;;;;;;;14.22;100.00;102485.78;5045346;28;20037;-49
2023/09/03 01:27:48;;;;;;;18.48;16.67;;;;;;;14.17;100.00;102491.44;5046527;28;20029;-48
2023/09/03 01:30:15;;;;;;;18.15;16.23;;;;;;;14.15;100.00;102490.66;5056491;28;20045;-47
2023/09/03 01:32:41;;;;;;;19.88;17.77;;;;;;;14.12;100.00;102490.88;5040024;28;20472;-48
2023/09/03 01:35:08;;;;;;;19.05;17.15;;;;;;;14.11;100.00;102497.19;5045606;28;20067;-48
2023/09/03 01:37:34;;;;;;;18.70;16.70;;;;;;;14.12;100.00;102496.22;5049258;28;20325;-48
2023/09/03 01:39:59;;;;;;;18.48;16.60;;;;;;;14.08;100.00;102497.38;5053094;28;20052;-48
2023/09/03 01:42:24;;;;;;;18.30;16.38;;;;;;;14.10;100.00;102490.09;5046119;28;20438;-48
2023/09/03 01:44:50;;;;;;;18.58;16.75;;;;;;;14.10;100.00;102482.09;5050415;28;20025;-48
2023/09/03 01:47:47;;;;;;;19.58;17.38;;;;;;;14.09;100.00;102488.41;5052559;28;20025;-48
2023/09/03 01:50:34;;;;;;;19.23;16.85;;;;;;;14.08;100.00;102492.03;5047304;28;20041;-49
2023/09/03 01:53:09;;;;;;;18.67;16.77;;;;;;;14.02;100.00;102487.97;5049608;28;20062;-48
2023/09/03 01:55:38;;;;;;;18.90;17.10;;;;;;;13.97;100.00;102481.19;5045571;28;20078;-48
2023/09/03 01:58:07;;;;;;;19.02;17.20;;;;;;;13.97;100.00;102494.53;5043896;28;20463;-48
2023/09/03 02:00:34;;;;;;;19.35;17.45;;;;;;;13.95;100.00;102485.78;5049889;28;20036;-49
2023/09/03 02:03:01;;;;;;;17.90;16.10;;;;;;;13.96;100.00;102500.84;5044014;28;20033;-48
2023/09/03 02:05:26;;;;;;;19.13;16.75;;;;;;;13.91;100.00;102497.63;5043910;28;20443;-48
2023/09/03 02:07:52;;;;;;;18.10;15.68;;;;;;;13.92;100.00;102491.31;5052732;28;20052;-48
2023/09/03 02:10:17;;;;;;;18.60;16.65;;;;;;;13.93;100.00;102501.03;5053812;28;20036;-48
2023/09/03 02:12:43;;;;;;;18.70;16.73;;;;;;;13.86;100.00;102500.59;5050928;28;20044;-48
2023/09/03 02:15:08;;;;;;;17.77;15.98;;;;;;;13.87;100.00;102504.94;5049962;28;20036;-48
2023/09/03 02:17:33;;;;;;;20.70;16.63;;;;;;;13.84;100.00;102511.38;5046284;28;20029;-48
2023/09/03 02:19:59;;;;;;;18.55;16.55;;;;;;;13.82;100.00;102515.94;5045870;28;20478;-48
2023/09/03 02:22:24;;;;;;;18.45;16.40;;;;;;;13.81;100.00;102519.56;5050601;28;20104;-48
2023/09/03 02:24:50;;;;;;;19.30;16.50;;;;;;;13.79;100.00;102523.28;5052625;28;20087;-48
2023/09/03 02:27:16;;;;;;;18.52;16.67;;;;;;;13.73;100.00;102526.34;5049153;28;20383;-48
2023/09/03 02:29:41;;;;;;;19.15;16.98;;;;;;;13.72;100.00;102528.16;5054318;28;20040;-49
2023/09/03 02:32:07;;;;;;;18.50;16.70;;;;;;;13.71;100.00;102528.28;5053254;28;20029;-48
2023/09/03 02:34:33;;;;;;;19.55;17.52;;;;;;;13.67;100.00;102533.81;5034405;28;20044;-49
2023/09/03 02:36:59;;;;;;;19.48;17.48;;;;;;;13.67;100.00;102531.13;5041812;28;20086;-48
2023/09/03 02:39:24;;;;;;;17.80;16.10;;;;;;;13.66;100.00;102533.91;5044309;28;20041;-49
2023/09/03 02:41:49;;;;;;;18.92;16.42;;;;;;;13.67;100.00;102538.25;5043577;28;20029;-47
2023/09/03 02:44:15;;;;;;;17.75;16.00;;;;;;;13.67;100.00;102539.13;5047619;28;20053;-48
2023/09/03 02:46:40;;;;;;;19.20;17.15;;;;;;;13.62;100.00;102524.34;5049410;28;20134;-48
2023/09/03 02:49:06;;;;;;;17.70;15.95;;;;;;;13.58;100.00;102528.16;5054644;28;20111;-51
2023/09/03 02:51:32;;;;;;;19.33;16.83;;;;;;;13.58;100.00;102515.66;5044751;28;20037;-47
2023/09/03 02:53:57;;;;;;;18.73;16.73;;;;;;;13.58;100.00;102513.00;5046399;28;20033;-48
2023/09/03 02:56:23;;;;;;;18.98;15.85;;;;;;;13.60;100.00;102513.75;5051176;28;20051;-48
2023/09/03 02:58:49;;;;;;;20.75;16.70;;;;;;;13.54;100.00;102513.28;5051901;28;20024;-48
2023/09/03 03:01:20;;;;;;;18.33;16.52;;;;;;;13.52;100.00;102516.03;5052251;28;20131;-47
2023/09/03 03:03:45;;;;;;;18.83;16.88;;;;;;;13.51;100.00;102515.19;5044912;28;20033;-50
2023/09/03 03:06:11;;;;;;;19.73;17.73;;;;;;;13.53;100.00;102519.59;5049951;28;20104;-50
2023/09/03 03:08:37;;;;;;;17.70;15.90;;;;;;;13.50;100.00;102520.63;5044971;28;20115;-47
2023/09/03 03:11:14;;;;;;;20.73;16.73;;;;;;;13.48;100.00;102522.53;5044231;28;20432;-47
2023/09/03 03:13:41;;;;;;;18.75;16.15;;;;;;;13.47;100.00;102524.38;5050802;28;20064;-48
2023/09/03 03:16:08;;;;;;;18.00;16.20;;;;;;;13.46;100.00;102524.47;5051532;28;20029;-48
2023/09/03 03:18:35;;;;;;;18.42;16.45;;;;;;;13.46;100.00;102544.00;5049425;28;20036;-48
2023/09/03 03:21:22;;;;;;;17.30;15.50;;;;;;;13.45;100.00;102530.75;5046135;28;20061;-49
2023/09/03 03:23:52;;;;;;;17.60;15.75;;;;;;;13.37;100.00;102517.84;5046855;28;20032;-49
2023/09/03 03:26:18;;;;;;;17.98;16.17;;;;;;;13.36;100.00;102510.81;5045863;28;20539;-48
2023/09/03 03:28:44;;;;;;;18.13;16.38;;;;;;;13.35;100.00;102485.06;5048068;28;20112;-48
2023/09/03 03:31:18;;;;;;;19.23;17.08;;;;;;;13.32;100.00;102490.59;5050643;28;20159;-49
2023/09/03 03:33:45;;;;;;;18.88;16.95;;;;;;;13.34;100.00;102496.72;5050194;28;20028;-51
2023/09/03 03:36:15;;;;;;;18.80;16.38;;;;;;;13.34;100.00;102486.03;5051144;28;20390;-48
2023/09/03 03:38:41;;;;;;;18.23;16.33;;;;;;;13.35;100.00;102489.56;5051575;28;20029;-49
2023/09/03 03:41:11;;;;;;;18.50;16.45;;;;;;;13.32;100.00;102494.16;5046558;28;20099;-48
2023/09/03 03:43:39;;;;;;;18.80;16.85;;;;;;;13.33;100.00;102505.66;5043605;28;20038;-49
2023/09/03 03:46:06;;;;;;;18.27;16.45;;;;;;;13.28;100.00;102524.59;5054372;28;20074;-50
2023/09/03 03:48:31;;;;;;;19.67;17.52;;;;;;;13.31;100.00;102528.91;5050571;28;20383;-49
2023/09/03 03:50:57;;;;;;;17.77;16.08;;;;;;;13.31;100.00;102534.25;5049640;28;20159;-48
2023/09/03 03:53:22;;;;;;;18.80;16.95;;;;;;;13.27;100.00;102543.38;5056906;28;20491;-48
2023/09/03 03:56:03;;;;;;;19.27;16.83;;;;;;;13.29;100.00;102534.31;5046729;28;20025;-50
2023/09/03 03:58:30;;;;;;;18.25;16.45;;;;;;;13.27;100.00;102532.69;5050727;28;20048;-48
2023/09/03 04:00:55;;;;;;;19.05;17.02;;;;;;;13.24;100.00;102528.41;5052536;28;20078;-48
2023/09/03 04:03:22;;;;;;;17.83;16.00;;;;;;;13.20;100.00;102521.53;5042259;28;20033;-48
2023/09/03 04:06:01;;;;;;;17.38;15.57;;;;;;;13.22;100.00;102532.13;5050014;28;20016;-48
2023/09/03 04:08:28;;;;;;;18.33;16.42;;;;;;;13.18;100.00;102535.94;5046152;28;20032;-50
2023/09/03 04:11:01;;;;;;;16.55;15.05;;;;;;;13.18;100.00;102535.94;5045030;28;20467;-49
2023/09/03 04:13:27;;;;;;;18.02;16.15;;;;;;;13.14;100.00;102537.94;5050102;28;20029;-49
2023/09/03 04:15:56;;;;;;;17.73;15.82;;;;;;;13.07;100.00;102548.13;5044729;28;20060;-48
2023/09/03 04:18:22;;;;;;;17.08;14.90;;;;;;;13.06;100.00;102548.22;5046427;28;20044;-49
2023/09/03 04:20:56;;;;;;;16.40;14.60;;;;;;;13.06;100.00;102551.72;5045354;28;20483;-51
2023/09/03 04:23:22;;;;;;;16.08;14.57;;;;;;;13.05;100.00;102552.66;5051311;28;20022;-48
2023/09/03 04:25:48;;;;;;;16.67;15.00;;;;;;;13.05;100.00;102550.00;5048401;28;20044;-48
2023/09/03 04:28:13;;;;;;;17.23;15.45;;;;;;;13.08;100.00;102554.31;5054324;28;20026;-48
2023/09/03 04:30:39;;;;;;;17.08;15.32;;;;;;;13.06;100.00;102551.72;5056947;28;20438;-49
2023/09/03 04:33:08;;;;;;;17.02;15.25;;;;;;;13.06;100.00;102550.88;5050554;28;20045;-47
2023/09/03 04:35:34;;;;;;;16.83;15.13;;;;;;;13.06;100.00;102551.72;5052247;28;20025;-48
2023/09/03 04:37:59;;;;;;;16.48;14.88;;;;;;;13.04;100.00;102550.97;5051447;28;20479;-47
2023/09/03 04:40:24;;;;;;;16.95;15.25;;;;;;;13.05;100.00;102565.16;5044740;28;20075;-47
2023/09/03 04:42:50;;;;;;;17.08;15.38;;;;;;;13.00;100.00;102562.75;5041397;28;20045;-47
2023/09/03 04:45:16;;;;;;;15.05;13.45;;;;;;;13.01;100.00;102571.63;5049549;28;20033;-47
2023/09/03 04:47:42;;;;;;;16.05;14.40;;;;;;;13.01;100.00;102564.47;5045357;28;20083;-48
2023/09/03 04:50:07;;;;;;;16.83;15.18;;;;;;;12.98;100.00;102572.66;5046050;28;20029;-47
2023/09/03 04:52:34;;;;;;;16.73;15.02;;;;;;;12.95;100.00;102572.84;5051127;28;20119;-47
2023/09/03 04:54:59;;;;;;;16.67;15.07;;;;;;;12.95;100.00;102579.03;5052159;28;20040;-47
2023/09/03 04:57:25;;;;;;;18.70;15.40;;;;;;;12.93;100.00;102577.41;5041870;28;20017;-47
2023/09/03 04:59:50;;;;;;;16.60;14.93;;;;;;;12.95;100.00;102575.50;5052759;28;20498;-48
2023/09/03 05:02:15;;;;;;;17.25;15.40;;;;;;;12.94;100.00;102585.31;5050721;28;20048;-48
2023/09/03 05:04:40;;;;;;;18.77;15.70;;;;;;;12.95;100.00;102592.34;5052969;28;20037;-47
2023/09/03 05:07:06;;;;;;;16.83;15.15;;;;;;;12.94;100.00;102593.31;5056311;28;20364;-48
2023/09/03 05:09:32;;;;;;;17.10;14.68;;;;;;;12.96;100.00;102594.09;5043026;28;20584;-48
2023/09/03 05:11:57;;;;;;;18.00;16.17;;;;;;;12.95;100.00;102589.69;5048160;28;20070;-48
2023/09/03 05:14:22;;;;;;;19.77;15.95;;;;;;;12.96;100.00;102596.75;5049371;28;20029;-47
2023/09/03 05:16:48;;;;;;;16.40;14.90;;;;;;;12.99;100.00;102600.19;5052761;28;20181;-48
2023/09/03 05:19:14;;;;;;;18.42;15.48;;;;;;;12.93;100.00;102593.41;5048000;28;20029;-50
2023/09/03 05:21:43;;;;;;;17.05;15.35;;;;;;;12.95;100.00;102596.84;5050047;28;20110;-48
2023/09/03 05:24:10;;;;;;;16.08;14.35;;;;;;;12.98;100.00;102598.47;5045199;28;20386;-49
2023/09/03 05:26:35;;;;;;;17.63;15.93;;;;;;;12.96;100.00;102602.09;5049640;28;20025;-48
2023/09/03 05:29:01;;;;;;;18.40;16.35;;;;;;;12.99;100.00;102605.50;5051989;28;20108;-48
2023/09/03 05:31:27;;;;;;;19.27;16.63;;;;;;;12.98;100.00;102617.16;5043359;28;20028;-48
2023/09/03 05:33:52;;;;;;;17.70;15.90;;;;;;;13.00;100.00;102616.09;5053849;28;20687;-49
2023/09/03 05:36:17;;;;;;;17.88;16.08;;;;;;;13.03;100.00;102615.91;5043256;28;20021;-48
2023/09/03 05:38:43;;;;;;;18.15;16.35;;;;;;;13.02;100.00;102613.34;5052628;28;20029;-48
2023/09/03 05:41:09;;;;;;;18.17;16.27;;;;;;;13.04;100.00;102614.09;5055108;28;20064;-47
2023/09/03 05:43:36;;;;;;;18.10;16.10;;;;;;;13.06;100.00;102613.06;5043672;28;20655;-48
2023/09/03 05:46:01;;;;;;;16.75;14.90;;;;;;;13.07;100.00;102613.94;5047951;28;20056;-48
2023/09/03 05:48:26;;;;;;;18.55;16.42;;;;;;;13.08;100.00;102615.66;5045520;28;20368;-48
2023/09/03 05:51:03;;;;;;;20.90;16.10;;;;;;;13.15;100.00;102614.34;5052801;28;20039;-49
2023/09/03 05:53:29;;;;;;;20.88;15.98;;;;;;;13.14;100.00;102610.81;5049742;28;20061;-48
2023/09/03 05:56:03;;;;;;;18.17;16.38;;;;;;;13.17;100.00;102608.91;5050622;28;20051;-50
2023/09/03 05:58:28;;;;;;;20.15;16.77;;;;;;;13.20;100.00;102620.25;5058541;28;20056;-48
2023/09/03 06:00:54;;;;;;;18.83;16.58;;;;;;;13.24;100.00;102628.94;5046660;28;20060;-47
2023/09/03 06:03:19;;;;;;;18.80;16.77;;;;;;;13.28;100.00;102630.47;5046213;28;20039;-49
2023/09/03 06:05:45;;;;;;;19.70;17.75;;;;;;;13.31;100.00;102638.31;5049946;28;20462;-47
2023/09/03 06:08:10;;;;;;;19.70;17.33;;;;;;;13.33;100.00;102631.09;5057178;28;20032;-47
2023/09/03 06:10:36;;;;;;;20.95;17.63;;;;;;;13.36;100.00;102638.06;5047539;28;20036;-47
2023/09/03 06:13:02;;;;;;;19.60;17.38;;;;;;;13.41;100.00;102638.66;5037518;28;20028;-48
2023/09/03 06:15:27;;;;;;;19.92;17.02;;;;;;;13.45;100.00;102645.50;5036317;28;20043;-47
2023/09/03 06:17:53;;;;;;;20.00;17.92;;;;;;;13.47;100.00;102641.81;5052815;28;20067;-49
2023/09/03 06:20:19;;;;;;;20.63;18.48;;;;;;;13.53;100.00;102653.06;5050640;28;20030;-47
2023/09/03 06:22:44;;;;;;;21.73;19.27;;;;;;;13.57;100.00;102642.09;5057432;28;20078;-49
2023/09/03 06:25:09;;;;;;;24.38;18.88;;;;;;;13.60;100.00;102655.25;5050017;28;20383;-48
2023/09/03 06:27:35;;;;;;;22.60;20.20;;;;;;;13.67;100.00;102666.44;5046711;28;20029;-48
2023/09/03 06:30:00;;;;;;;22.45;20.25;;;;;;;13.71;100.00;102664.47;5046175;28;20102;-48
2023/09/03 06:32:25;;;;;;;23.80;21.08;;;;;;;13.75;100.00;102674.84;5049564;28;20078;-48
2023/09/03 06:34:51;;;;;;;24.55;22.00;;;;;;;13.81;100.00;102681.63;5045773;28;20517;-48
2023/09/03 06:37:16;;;;;;;22.85;20.55;;;;;;;13.87;100.00;102681.22;5045992;28;20194;-48
2023/09/03 06:39:42;;;;;;;25.35;22.80;;;;;;;13.91;100.00;102685.44;5065369;28;20013;-48
2023/09/03 06:42:07;;;;;;;26.60;23.60;;;;;;;13.95;100.00;102686.97;5039852;28;20025;-47
2023/09/03 06:44:33;;;;;;;25.92;23.33;;;;;;;14.00;100.00;102695.56;5049231;28;20106;-48
2023/09/03 06:46:58;;;;;;;29.27;24.85;;;;;;;14.06;100.00;102697.84;5040208;28;20048;-50
2023/09/03 06:49:23;;;;;;;27.17;24.58;;;;;;;14.12;100.00;102699.31;5043089;28;20025;-49
2023/09/03 06:51:51;;;;;;;28.02;25.13;;;;;;;14.15;100.00;102706.25;5042296;28;20013;-48
2023/09/03 06:54:16;;;;;;;29.33;25.92;;;;;;;14.20;100.00;102704.16;5050630;28;20031;-48
2023/09/03 06:56:41;;;;;;;30.88;27.60;;;;;;;14.26;100.00;102703.78;5045188;28;20030;-48
2023/09/03 06:59:07;;;;;;;29.98;26.98;;;;;;;14.32;100.00;102711.44;5049959;28;20107;-48
2023/09/03 07:01:32;;;;;;;31.50;28.48;;;;;;;14.37;100.00;102706.66;5047465;28;20124;-48
2023/09/03 07:03:57;;;;;;;30.92;27.85;;;;;;;14.44;100.00;102702.63;5053026;28;20063;-49
2023/09/03 07:06:23;;;;;;;31.10;28.10;;;;;;;14.56;100.00;102702.81;5048569;28;20112;-49
2023/09/03 07:08:51;;;;;;;30.10;26.85;;;;;;;14.61;100.00;102706.06;5057074;28;20031;-48
2023/09/03 07:11:17;;;;;;;28.40;25.33;;;;;;;14.69;100.00;102708.22;5046124;28;20471;-49
2023/09/03 07:13:42;;;;;;;28.02;25.13;;;;;;;14.86;100.00;102716.03;5048694;28;20036;-50
2023/09/03 07:16:07;;;;;;;29.80;26.10;;;;;;;15.01;100.00;102718.69;5054778;28;20108;-48
2023/09/03 07:18:33;;;;;;;27.73;24.77;;;;;;;15.13;100.00;102717.88;5048146;28;20072;-47
2023/09/03 07:21:06;;;;;;;28.42;25.13;;;;;;;15.31;100.00;102726.50;5050162;28;20052;-47
2023/09/03 07:23:31;;;;;;;27.85;25.15;;;;;;;15.50;100.00;102727.00;5050390;28;20024;-48
2023/09/03 07:26:05;;;;;;;25.95;23.35;;;;;;;15.64;100.00;102719.84;5043017;28;20033;-48
2023/09/03 07:28:31;;;;;;;25.15;22.38;;;;;;;15.86;100.00;102727.28;5040118;28;20017;-47
2023/09/03 07:30:57;;;;;;;24.95;22.45;;;;;;;16.02;100.00;102725.25;5040986;28;20029;-47
2023/09/03 07:33:22;;;;;;;25.35;22.95;;;;;;;16.26;100.00;102732.53;5041315;28;20391;-48
2023/09/03 07:35:47;;;;;;;24.17;21.75;;;;;;;16.47;100.00;102732.84;5039419;28;20025;-48
2023/09/03 07:38:12;;;;;;;26.23;23.48;;;;;;;16.66;100.00;102740.41;5048145;28;20391;-48
2023/09/03 07:40:38;;;;;;;23.77;21.48;;;;;;;16.86;100.00;102738.13;5035092;28;20029;-48
2023/09/03 07:43:04;;;;;;;24.75;22.13;;;;;;;17.04;100.00;102735.91;5040007;28;20436;-48
2023/09/03 07:45:29;;;;;;;25.33;22.77;;;;;;;17.23;100.00;102736.25;5050545;28;20479;-48
2023/09/03 07:47:54;;;;;;;24.33;21.08;;;;;;;17.48;100.00;102745.16;5047322;28;20435;-47
2023/09/03 07:50:20;;;;;;;24.33;21.90;;;;;;;17.73;100.00;102753.03;5044342;28;20051;-48
2023/09/03 07:52:45;;;;;;;24.55;22.02;;;;;;;17.88;100.00;102755.56;5042120;28;20025;-47
2023/09/03 07:55:10;;;;;;;23.95;21.55;;;;;;;18.09;100.00;102753.03;5041394;28;20070;-49
2023/09/03 07:57:36;;;;;;;24.10;21.20;;;;;;;18.32;100.00;102748.53;5038688;28;20029;-47
2023/09/03 08:00:01;;;;;;;23.60;21.20;;;;;;;18.63;100.00;102751.44;5045611;28;20044;-48
2023/09/03 08:02:26;;;;;;;22.45;20.15;;;;;;;18.74;100.00;102750.59;5041555;28;20446;-48
2023/09/03 08:04:52;;;;;;;22.33;20.23;;;;;;;18.95;100.00;102746.19;5044584;28;20025;-48
2023/09/03 08:07:17;;;;;;;27.63;19.30;;;;;;;19.07;100.00;102749.69;5048281;28;20027;-49
2023/09/03 08:09:42;;;;;;;21.77;19.67;;;;;;;19.27;100.00;102750.72;5049234;28;20029;-49
2023/09/03 08:12:08;;;;;;;20.33;18.33;;;;;;;19.45;97.85;102748.31;5044653;28;20060;-48
2023/09/03 08:14:33;;;;;;;20.33;18.25;;;;;;;19.62;96.78;102746.00;5042098;28;20116;-48
2023/09/03 08:16:58;;;;;;;20.90;18.90;;;;;;;19.81;97.93;102743.50;5040765;28;20029;-49
2023/09/03 08:19:24;;;;;;;20.95;18.85;;;;;;;19.96;97.47;102746.72;5036485;28;20483;-48
2023/09/03 08:21:49;;;;;;;18.83;16.85;;;;;;;20.17;94.59;102752.09;5037325;28;20082;-49
2023/09/03 08:24:14;;;;;;;18.45;16.48;;;;;;;20.34;93.13;102747.91;5046156;28;20044;-49
2023/09/03 08:26:40;;;;;;;17.88;16.05;;;;;;;20.49;90.55;102740.28;5043641;28;20025;-49
2023/09/03 08:29:05;;;;;;;18.00;16.27;;;;;;;20.52;92.52;102738.16;5046014;28;20162;-49
2023/09/03 08:31:31;;;;;;;18.48;16.05;;;;;;;20.77;88.26;102744.09;5043124;28;20145;-48
2023/09/03 08:33:56;;;;;;;18.73;16.83;;;;;;;20.89;89.21;102751.06;5044618;28;20049;-48
2023/09/03 08:36:24;;;;;;;17.60;15.80;;;;;;;21.14;91.07;102750.69;5047899;28;20102;-49
2023/09/03 08:38:50;;;;;;;17.05;15.27;;;;;;;21.26;86.16;102746.84;5041808;28;20127;-48
2023/09/03 08:41:18;;;;;;;18.88;15.43;;;;;;;21.39;84.15;102750.13;5044339;28;20028;-47
2023/09/03 08:43:47;;;;;;;16.00;14.50;;;;;;;21.56;83.35;102756.69;5039818;28;20058;-50
2023/09/03 08:46:15;;;;;;;16.70;14.40;;;;;;;21.70;83.12;102749.13;5054093;28;20100;-48
2023/09/03 08:48:42;;;;;;;15.30;13.10;;;;;;;21.98;83.69;102756.34;5043446;28;20549;-48
2023/09/03 08:51:09;;;;;;;15.02;13.52;;;;;;;22.13;81.19;102754.03;5045765;28;20009;-49
2023/09/03 08:53:35;;;;;;;15.63;13.95;;;;;;;22.37;81.37;102757.25;5037783;28;20051;-48
2023/09/03 08:56:01;;;;;;;14.95;13.45;;;;;;;22.52;79.66;102751.19;5033342;28;20034;-48
2023/09/03 08:58:26;;;;;;;13.27;12.00;;;;;;;22.53;78.09;102758.31;5042329;28;20032;-47
2023/09/03 09:00:55;;;;;;;17.17;12.52;;;;;;;22.80;76.62;102755.72;5043894;28;20479;-48
2023/09/03 09:03:24;;;;;;;11.60;10.45;;;;;;;22.90;77.32;102751.13;5042304;28;20052;-49
2023/09/03 09:05:51;;;;;;;14.48;11.60;;;;;;;23.09;74.42;102752.88;5049522;28;20029;-48
2023/09/03 09:08:16;;;;;;;14.60;11.63;;;;;;;23.44;75.81;102753.88;5045484;28;20039;-48
2023/09/03 09:10:50;;;;;;;12.88;11.57;;;;;;;23.59;73.12;102754.16;5045827;28;20022;-48
2023/09/03 09:13:20;;;;;;;12.95;11.00;;;;;;;23.79;72.40;102758.38;5036879;28;20507;-49
2023/09/03 09:15:45;;;;;;;13.85;11.68;;;;;;;23.95;71.31;102754.97;5044837;28;20043;-48
2023/09/03 09:18:11;;;;;;;12.85;11.55;;;;;;;24.13;74.20;102752.19;5042406;28;20383;-48
2023/09/03 09:20:40;;;;;;;13.13;11.77;;;;;;;24.28;70.68;102754.28;5044233;28;20036;-48
2023/09/03 09:23:10;;;;;;;13.90;9.95;;;;;;;24.38;68.42;102749.59;5053355;28;20475;-48
2023/09/03 09:25:36;;;;;;;15.85;11.38;;;;;;;24.55;67.92;102751.41;5044636;28;20090;-49
2023/09/03 09:28:12;;;;;;;12.50;11.25;;;;;;;24.60;70.76;102745.47;5045053;28;20047;-49
2023/09/03 09:30:55;;;;;;;13.50;10.45;;;;;;;24.67;70.74;102737.53;5043937;28;20033;-48
2023/09/03 09:33:20;;;;;;;11.63;10.43;;;;;;;24.80;66.39;102743.34;5036577;28;20209;-48
2023/09/03 09:35:46;;;;;;;13.30;9.73;;;;;;;24.94;68.21;102748.09;5036512;28;20108;-48
2023/09/03 09:38:12;;;;;;;10.50;8.02;;;;;;;24.85;65.15;102742.84;5042319;28;20409;-48
2023/09/03 09:40:37;;;;;;;10.00;8.70;;;;;;;25.02;64.28;102746.44;5036344;28;20438;-49
2023/09/03 09:43:06;;;;;;;9.70;7.18;;;;;;;25.05;63.27;102743.41;5042028;28;20388;-48
2023/09/03 09:45:32;;;;;;;10.30;8.32;;;;;;;25.12;63.76;102739.81;5050542;28;20025;-48
2023/09/03 09:48:10;;;;;;;11.43;9.18;;;;;;;25.08;66.48;102738.47;5047166;28;20386;-48
2023/09/03 09:50:38;;;;;;;9.48;7.72;;;;;;;25.01;62.38;102739.28;5053240;28;20036;-49
2023/09/03 09:53:04;;;;;;;8.17;7.10;;;;;;;25.05;65.12;102736.06;5048488;28;20033;-49
2023/09/03 09:55:33;;;;;;;9.07;7.03;;;;;;;25.08;63.96;102727.59;5051425;28;20542;-48
2023/09/03 09:57:59;;;;;;;7.78;7.07;;;;;;;25.19;62.17;102726.38;5046979;28;20136;-49
2023/09/03 10:00:36;;;;;;;7.68;6.22;;;;;;;25.28;64.70;102721.84;5046221;28;20027;-49
2023/09/03 10:03:02;;;;;;;8.68;7.25;;;;;;;25.24;60.93;102726.72;5043208;28;20022;-48
2023/09/03 10:05:28;;;;;;;10.20;7.28;;;;;;;25.29;61.41;102726.25;5044742;28;20112;-48
2023/09/03 10:07:53;;;;;;;10.57;7.20;;;;;;;25.30;62.89;102726.09;5047992;28;20961;-49
2023/09/03 10:10:20;;;;;;;7.82;6.30;;;;;;;25.37;60.09;102729.00;5047313;28;20135;-48
2023/09/03 10:12:45;;;;;;;8.68;6.53;;;;;;;25.24;63.60;102728.63;5043055;28;20433;-48
2023/09/03 10:15:13;;;;;;;11.05;7.15;;;;;;;25.20;60.77;102725.38;5039627;28;20018;-48
2023/09/03 10:17:40;;;;;;;8.57;6.40;;;;;;;25.26;58.56;102722.03;5043730;28;20029;-48
2023/09/03 10:20:15;;;;;;;6.57;5.50;;;;;;;25.37;59.88;102718.09;5052795;28;20029;-49
2023/09/03 10:22:41;;;;;;;7.43;5.72;;;;;;;25.53;61.60;102722.69;5037248;28;20036;-48
2023/09/03 10:25:10;;;;;;;6.70;5.82;;;;;;;25.71;60.43;102724.38;5049027;28;20037;-48
2023/09/03 10:27:39;;;;;;;9.77;6.43;;;;;;;25.77;58.92;102724.53;5052151;28;20097;-48
2023/09/03 10:30:10;;;;;;;10.20;6.60;;;;;;;25.71;56.99;102722.47;5052980;28;20025;-50
2023/09/03 10:32:37;;;;;;;8.52;6.00;;;;;;;25.94;57.99;102719.03;5043508;28;20526;-49
2023/09/03 10:35:10;;;;;;;9.13;6.32;;;;;;;26.03;59.57;102718.03;5050629;28;20047;-49
2023/09/03 10:37:37;;;;;;;9.70;6.13;;;;;;;26.18;56.73;102726.31;5044545;28;20072;-48
2023/09/03 10:40:27;;;;;;;8.35;6.40;;;;;;;26.40;61.59;102721.97;5048458;28;20031;-48
2023/09/03 10:42:54;;;;;;;7.95;5.85;;;;;;;26.37;56.05;102714.16;5039032;28;20060;-49
2023/09/03 10:45:19;;;;;;;8.35;4.97;;;;;;;26.56;57.11;102710.13;5046668;28;20040;-49
2023/09/03 10:47:59;;;;;;;5.60;4.88;;;;;;;26.80;58.47;102713.81;5056239;28;20028;-48
2023/09/03 10:50:50;;;;;;;6.22;5.07;;;;;;;26.98;58.34;102714.34;5049066;28;20124;-50
2023/09/03 10:53:39;;;;;;;7.45;5.78;;;;;;;26.95;59.84;102722.91;5044835;28;20025;-49
2023/09/03 10:56:07;;;;;;;;;;;;;;;27.26;61.96;102714.66;5053474;28;20069;-49
2023/09/03 10:58:32;;;;;;;4.75;4.10;;;;;;;27.12;54.09;102718.16;5050666;28;19920;-49
2023/09/03 11:01:17;;;;;;;8.73;4.88;;;;;;;27.20;56.26;102712.66;5050098;28;20340;-48
2023/09/03 11:03:47;;;;;;;7.53;4.45;;;;;;;27.26;52.61;102708.31;5046843;28;20091;-49
2023/09/03 11:06:21;;;;;;;7.10;4.43;;;;;;;27.35;55.27;102710.00;5057344;28;20036;-49
2023/09/03 11:08:48;;;;;;;5.07;4.30;;;;;;;27.36;51.04;102717.13;5046666;28;20070;-49